Time;durP1;ratioP1;P1;durP2;ratioP2;P2;SDS_P1;SDS_P2;PMS_P1;PMS_P2;Temp;Humidity;BMP_temperature;BMP_pressure;BME280_temperature;BME280_humidity;BME280_pressure;Samples;Min_cycle;Max_cycle;Signal;HPM_P1;HPM_P2
2022/01/03 00:01:37;;;;;;;9.13;2.80;;;9.80;99.90;;;;;;5081674;28;20174;-53
2022/01/03 00:04:03;;;;;;;9.77;2.75;;;9.90;99.90;;;;;;5081436;28;20040;-53
2022/01/03 00:06:30;;;;;;;9.27;2.58;;;9.80;99.90;;;;;;5082594;28;20127;-56
2022/01/03 00:08:57;;;;;;;12.45;2.75;;;9.80;99.90;;;;;;5077944;28;20452;-56
2022/01/03 00:11:24;;;;;;;9.38;2.20;;;9.80;99.90;;;;;;5063887;28;20109;-58
2022/01/03 00:13:51;;;;;;;6.85;2.03;;;9.70;99.90;;;;;;5080275;28;20071;-53
2022/01/03 00:16:18;;;;;;;9.50;2.70;;;9.70;99.90;;;;;;5082423;28;20083;-54
2022/01/03 00:18:44;;;;;;;10.27;2.25;;;9.70;99.90;;;;;;5080919;28;20051;-54
2022/01/03 00:21:16;;;;;;;9.82;2.83;;;9.60;99.90;;;;;;5080834;28;20135;-54
2022/01/03 00:23:53;;;;;;;10.80;3.03;;;9.60;99.90;;;;;;5081244;28;20210;-57
2022/01/03 00:26:24;;;;;;;8.25;2.50;;;9.60;99.90;;;;;;5081835;28;20090;-56
2022/01/03 00:28:51;;;;;;;8.73;2.25;;;9.60;99.90;;;;;;5078760;28;20119;-55
2022/01/03 00:31:19;;;;;;;12.00;2.55;;;9.50;99.90;;;;;;5082013;28;20079;-53
2022/01/03 00:33:48;;;;;;;8.20;2.92;;;9.50;99.90;;;;;;5079806;28;20123;-55
2022/01/03 00:36:15;;;;;;;8.98;3.30;;;9.50;99.90;;;;;;5064628;28;20086;-55
2022/01/03 00:38:41;;;;;;;7.22;2.30;;;9.50;99.90;;;;;;5059442;28;20067;-54
2022/01/03 00:41:08;;;;;;;9.18;2.45;;;9.50;99.90;;;;;;5081367;28;20135;-56
2022/01/03 00:43:35;;;;;;;12.32;2.80;;;9.50;99.90;;;;;;5079526;28;20036;-54
2022/01/03 00:46:02;;;;;;;11.40;3.58;;;9.50;99.90;;;;;;5080303;28;20105;-57
2022/01/03 00:48:29;;;;;;;10.75;2.55;;;9.40;99.90;;;;;;5080203;28;20040;-54
2022/01/03 00:50:56;;;;;;;8.85;2.88;;;9.40;99.90;;;;;;5079681;28;20071;-53
2022/01/03 00:53:22;;;;;;;11.95;2.55;;;9.40;99.90;;;;;;5076799;28;20075;-55
2022/01/03 00:55:59;;;;;;;6.60;2.05;;;9.40;99.90;;;;;;5081321;28;20159;-54
2022/01/03 00:58:26;;;;;;;7.88;2.38;;;9.30;99.90;;;;;;5079054;28;20070;-54
2022/01/03 01:00:53;;;;;;;10.88;3.10;;;9.30;99.90;;;;;;5063129;28;20143;-50
2022/01/03 01:03:21;;;;;;;8.60;2.97;;;9.30;99.90;;;;;;5079715;28;20510;-56
2022/01/03 01:05:49;;;;;;;17.08;3.63;;;9.40;99.90;;;;;;5075866;28;20074;-54
2022/01/03 01:08:20;;;;;;;13.13;2.90;;;9.40;99.90;;;;;;5081383;28;20530;-57
2022/01/03 01:10:50;;;;;;;9.95;2.42;;;9.40;99.90;;;;;;5079404;28;20072;-56
2022/01/03 01:13:17;;;;;;;9.10;2.58;;;9.40;99.90;;;;;;5078086;28;20166;-53
2022/01/03 01:15:44;;;;;;;8.57;3.10;;;9.40;99.90;;;;;;5079566;28;20044;-58
2022/01/03 01:18:12;;;;;;;9.20;2.78;;;9.40;99.90;;;;;;5079189;28;20151;-54
2022/01/03 01:20:39;;;;;;;9.65;2.72;;;9.30;99.90;;;;;;5080495;28;20468;-55
2022/01/03 01:23:07;;;;;;;7.80;2.20;;;9.30;99.90;;;;;;5081427;28;20052;-53
2022/01/03 01:28:02;;;;;;;8.02;2.72;;;9.30;99.90;;;;;;5083222;28;20127;-56
2022/01/03 01:30:29;;;;;;;9.75;3.33;;;9.40;99.90;;;;;;5082096;28;20039;-55
2022/01/03 01:33:16;;;;;;;15.38;3.17;;;9.40;99.90;;;;;;5082329;28;20172;-52
2022/01/03 01:36:03;;;;;;;11.13;2.88;;;9.40;99.90;;;;;;5081925;28;20361;-56
2022/01/03 01:38:32;;;;;;;16.00;4.30;;;9.50;99.90;;;;;;5064682;28;20044;-56
2022/01/03 01:41:00;;;;;;;16.25;4.00;;;9.50;99.90;;;;;;5076684;28;20143;-54
2022/01/03 01:43:36;;;;;;;12.75;2.95;;;9.50;99.90;;;;;;5080537;28;20123;-55
2022/01/03 01:46:10;;;;;;;10.90;3.63;;;9.60;99.90;;;;;;5080214;28;20125;-56
2022/01/03 01:48:39;;;;;;;9.60;2.53;;;9.60;99.90;;;;;;5081369;28;20083;-56
2022/01/03 01:51:07;;;;;;;10.48;3.90;;;9.60;99.90;;;;;;5082877;28;20143;-56
2022/01/03 01:53:55;;;;;;;10.38;3.08;;;9.70;99.90;;;;;;5082912;28;20071;-57
2022/01/03 01:56:25;;;;;;;8.48;2.85;;;9.70;99.90;;;;;;5083474;28;20070;-56
2022/01/03 01:59:07;;;;;;;12.48;3.70;;;9.70;99.90;;;;;;5081788;28;20040;-55
2022/01/03 02:01:43;;;;;;;9.65;2.58;;;9.80;99.90;;;;;;5081717;28;20105;-57
2022/01/03 02:04:18;;;;;;;11.02;2.60;;;9.80;99.90;;;;;;5082664;28;20079;-54
2022/01/03 02:06:46;;;;;;;10.52;3.35;;;9.80;99.90;;;;;;5082989;28;20539;-57
2022/01/03 02:09:36;;;;;;;13.70;3.10;;;9.90;99.90;;;;;;5082789;28;20136;-56
2022/01/03 02:12:03;;;;;;;8.50;2.90;;;9.90;99.90;;;;;;5081866;28;20429;-57
2022/01/03 02:14:36;;;;;;;10.15;2.20;;;9.90;99.90;;;;;;5063585;28;20139;-55
2022/01/03 02:17:03;;;;;;;11.48;2.67;;;9.90;99.90;;;;;;5083002;28;20131;-57
2022/01/03 02:19:30;;;;;;;8.77;2.40;;;9.80;99.90;;;;;;5085568;28;20131;-54
2022/01/03 02:21:56;;;;;;;8.27;2.50;;;9.80;99.90;;;;;;5088048;28;20182;-55
2022/01/03 02:24:23;;;;;;;11.55;2.78;;;9.80;99.90;;;;;;5087577;28;20080;-58
2022/01/03 02:26:50;;;;;;;13.35;3.35;;;9.70;99.90;;;;;;5088038;28;20590;-58
2022/01/03 02:29:16;;;;;;;11.35;3.10;;;9.70;99.90;;;;;;5084790;28;20079;-57
2022/01/03 02:31:43;;;;;;;8.82;2.88;;;9.70;99.90;;;;;;5088995;28;20084;-56
2022/01/03 02:34:10;;;;;;;8.68;2.25;;;9.60;99.90;;;;;;5070878;28;20105;-57
2022/01/03 02:36:37;;;;;;;9.32;2.53;;;9.60;99.90;;;;;;5066186;28;20049;-52
2022/01/03 02:39:04;;;;;;;10.23;3.38;;;9.50;99.90;;;;;;5086665;28;20135;-56
2022/01/03 02:41:30;;;;;;;8.85;2.15;;;9.50;99.90;;;;;;5089456;28;20463;-56
2022/01/03 02:43:57;;;;;;;6.70;2.08;;;9.50;99.90;;;;;;5087953;28;20087;-57
2022/01/03 02:46:24;;;;;;;11.75;3.60;;;9.50;99.90;;;;;;5088942;28;20673;-58
2022/01/03 02:48:51;;;;;;;9.80;2.83;;;9.50;99.90;;;;;;5085279;28;20083;-56
2022/01/03 02:51:18;;;;;;;7.10;2.38;;;9.50;99.90;;;;;;5088246;28;20087;-57
2022/01/03 02:53:44;;;;;;;7.55;3.08;;;9.50;99.90;;;;;;5087492;28;20124;-57
2022/01/03 02:56:11;;;;;;;7.90;2.55;;;9.50;99.90;;;;;;5088394;28;20079;-53
2022/01/03 02:58:38;;;;;;;10.32;2.90;;;9.50;99.90;;;;;;5085982;28;20159;-56
2022/01/03 03:01:05;;;;;;;7.00;2.55;;;9.60;99.90;;;;;;5088354;28;20054;-57
2022/01/03 03:03:32;;;;;;;11.70;3.45;;;9.60;99.90;;;;;;5087299;28;20756;-55
2022/01/03 03:05:59;;;;;;;8.52;3.05;;;9.60;99.90;;;;;;5087674;28;20399;-58
2022/01/03 03:08:26;;;;;;;9.63;2.60;;;9.60;99.90;;;;;;5087705;28;20616;-58
2022/01/03 03:10:52;;;;;;;8.40;2.20;;;9.70;99.90;;;;;;5087962;28;20509;-57
2022/01/03 03:13:19;;;;;;;10.82;2.72;;;9.70;99.90;;;;;;5086904;28;20138;-56
2022/01/03 03:15:46;;;;;;;11.95;3.25;;;9.70;99.90;;;;;;5085487;28;20088;-58
2022/01/03 03:18:13;;;;;;;11.82;3.22;;;9.70;99.90;;;;;;5086598;28;20055;-57
2022/01/03 03:20:43;;;;;;;9.30;2.60;;;9.70;99.90;;;;;;5087248;28;20044;-57
2022/01/03 03:23:10;;;;;;;12.35;3.70;;;9.70;99.90;;;;;;5086940;28;20131;-56
2022/01/03 03:25:37;;;;;;;10.00;2.83;;;9.70;99.90;;;;;;5087242;28;20517;-58
2022/01/03 03:28:08;;;;;;;14.30;3.05;;;9.80;99.90;;;;;;5086992;28;20131;-57
2022/01/03 03:30:37;;;;;;;11.10;3.40;;;9.80;99.90;;;;;;5086171;28;20411;-54
2022/01/03 03:33:10;;;;;;;8.43;2.47;;;9.80;99.90;;;;;;5086847;28;20121;-55
2022/01/03 03:35:37;;;;;;;9.35;3.47;;;9.80;99.90;;;;;;5085449;28;20123;-56
2022/01/03 03:38:04;;;;;;;14.48;3.08;;;9.80;99.90;;;;;;5087128;28;20076;-55
2022/01/03 03:40:30;;;;;;;12.93;3.78;;;9.80;99.90;;;;;;5086658;28;20630;-56
2022/01/03 03:42:57;;;;;;;12.70;3.47;;;9.80;99.90;;;;;;5087188;28;20092;-58
2022/01/03 03:45:24;;;;;;;12.80;3.45;;;9.80;99.90;;;;;;5086156;28;20118;-54
2022/01/03 03:47:51;;;;;;;11.43;3.40;;;9.80;99.90;;;;;;5086732;28;20789;-56
2022/01/03 03:50:19;;;;;;;12.57;3.20;;;9.90;99.90;;;;;;5085636;28;20160;-57
2022/01/03 03:52:52;;;;;;;9.02;2.40;;;9.90;99.90;;;;;;5086705;28;20059;-55
2022/01/03 03:55:18;;;;;;;8.65;2.42;;;9.90;99.90;;;;;;5086171;28;20049;-58
2022/01/03 03:57:45;;;;;;;11.80;3.50;;;9.90;99.90;;;;;;5086609;28;20075;-57
2022/01/03 04:00:15;;;;;;;11.02;2.78;;;9.90;99.90;;;;;;5085293;28;20091;-55
2022/01/03 04:02:41;;;;;;;11.90;3.55;;;9.90;99.90;;;;;;5086570;28;20052;-57
2022/01/03 04:05:09;;;;;;;13.15;3.42;;;9.90;99.90;;;;;;5080944;28;20542;-53
2022/01/03 04:07:38;;;;;;;12.80;3.55;;;9.90;99.90;;;;;;5086754;28;20131;-54
2022/01/03 04:10:06;;;;;;;17.35;3.33;;;9.90;99.90;;;;;;5085753;28;20075;-56
2022/01/03 04:12:33;;;;;;;10.43;3.05;;;9.90;99.90;;;;;;5086152;28;20094;-57
2022/01/03 04:15:00;;;;;;;11.18;3.17;;;9.90;99.90;;;;;;5084213;28;20050;-57
2022/01/03 04:17:26;;;;;;;9.32;3.97;;;9.90;99.90;;;;;;5085422;28;20087;-56
2022/01/03 04:19:53;;;;;;;10.38;2.92;;;9.90;99.90;;;;;;5086366;28;20044;-57
2022/01/03 04:22:20;;;;;;;9.13;2.40;;;9.90;99.90;;;;;;5086850;28;20543;-57
2022/01/03 04:24:47;;;;;;;11.68;2.53;;;9.90;99.90;;;;;;5086143;28;20044;-56
2022/01/03 04:27:14;;;;;;;9.93;2.55;;;9.90;99.90;;;;;;5086430;28;20130;-57
2022/01/03 04:29:40;;;;;;;7.55;2.70;;;9.90;99.90;;;;;;5085479;28;20632;-57
2022/01/03 04:32:07;;;;;;;13.93;3.95;;;9.90;99.90;;;;;;5086082;28;20684;-56
2022/01/03 04:34:34;;;;;;;12.57;3.78;;;9.90;99.90;;;;;;5085642;28;20500;-54
2022/01/03 04:37:00;;;;;;;13.05;3.50;;;9.90;99.90;;;;;;5086648;28;20102;-56
2022/01/03 04:39:27;;;;;;;10.38;3.42;;;9.90;99.90;;;;;;5086174;28;20127;-56
2022/01/03 04:41:54;;;;;;;10.18;2.78;;;9.90;99.90;;;;;;5084103;28;20419;-57
2022/01/03 04:44:21;;;;;;;11.20;2.65;;;9.90;99.90;;;;;;5084556;28;20088;-57
2022/01/03 04:46:47;;;;;;;12.38;2.63;;;9.90;99.90;;;;;;5085922;28;20135;-57
2022/01/03 04:49:14;;;;;;;12.13;2.78;;;9.90;99.90;;;;;;5085234;28;20052;-53
2022/01/03 04:51:41;;;;;;;13.63;2.92;;;9.90;99.90;;;;;;5084383;28;20133;-57
2022/01/03 04:54:08;;;;;;;8.32;2.60;;;9.90;99.90;;;;;;5086061;28;20127;-55
2022/01/03 04:56:35;;;;;;;14.07;2.97;;;9.80;99.90;;;;;;5085945;28;20076;-56
2022/01/03 04:59:01;;;;;;;9.10;2.75;;;9.90;99.90;;;;;;5084435;28;20488;-56
2022/01/03 05:01:28;;;;;;;9.18;2.60;;;9.80;99.90;;;;;;5085563;28;20084;-57
2022/01/03 05:06:37;;;;;;;9.10;2.88;;;9.80;99.90;;;;;;5085754;28;20044;-55
2022/01/03 05:09:04;;;;;;;12.48;3.03;;;9.80;99.90;;;;;;5085806;28;20072;-58
2022/01/03 05:11:30;;;;;;;8.15;2.47;;;9.70;99.90;;;;;;5084841;28;20098;-57
2022/01/03 05:13:57;;;;;;;14.27;2.50;;;9.70;99.90;;;;;;5083605;28;20043;-56
2022/01/03 05:16:24;;;;;;;9.55;2.53;;;9.70;99.90;;;;;;5085958;28;20074;-57
2022/01/03 05:18:51;;;;;;;12.07;2.75;;;9.70;99.90;;;;;;5085139;28;20051;-57
2022/01/03 05:21:17;;;;;;;11.32;2.42;;;9.70;99.90;;;;;;5084291;28;20074;-57
2022/01/03 05:23:44;;;;;;;11.50;2.60;;;9.70;99.90;;;;;;5084842;28;20683;-56
2022/01/03 05:26:12;;;;;;;13.32;3.15;;;9.80;99.90;;;;;;5085458;28;20487;-52
2022/01/03 05:28:39;;;;;;;8.02;2.95;;;9.80;99.90;;;;;;5083690;28;20144;-57
2022/01/03 05:31:08;;;;;;;9.55;2.85;;;9.80;99.90;;;;;;5085879;28;20844;-57
2022/01/03 05:33:35;;;;;;;12.43;3.08;;;9.80;99.90;;;;;;5084547;28;20048;-56
2022/01/03 05:36:02;;;;;;;9.75;2.42;;;9.80;99.90;;;;;;5085302;28;20075;-57
2022/01/03 05:38:28;;;;;;;11.23;2.45;;;9.90;99.90;;;;;;5084572;28;20127;-57
2022/01/03 05:40:55;;;;;;;8.63;2.97;;;9.90;99.90;;;;;;5085346;28;20075;-57
2022/01/03 05:43:22;;;;;;;10.35;2.45;;;9.90;99.90;;;;;;5084051;28;20080;-56
2022/01/03 05:45:48;;;;;;;5.65;1.85;;;9.90;99.90;;;;;;5085191;28;20094;-57
2022/01/03 05:48:15;;;;;;;11.05;2.30;;;10.00;99.90;;;;;;5078735;28;20053;-57
2022/01/03 05:50:42;;;;;;;9.23;2.45;;;10.00;99.90;;;;;;5062970;28;20686;-57
2022/01/03 05:53:09;;;;;;;12.77;3.05;;;10.00;99.90;;;;;;5078031;28;20094;-57
2022/01/03 05:55:35;;;;;;;10.27;2.35;;;10.00;99.90;;;;;;5087153;28;20091;-58
2022/01/03 05:58:02;;;;;;;9.75;2.58;;;10.00;99.90;;;;;;5086860;28;20593;-57
2022/01/03 06:00:30;;;;;;;10.38;3.40;;;10.00;99.90;;;;;;5086581;28;20150;-56
2022/01/03 06:02:58;;;;;;;12.02;2.70;;;10.00;99.90;;;;;;5084242;28;20052;-56
2022/01/03 06:08:18;;;;;;;15.70;2.70;;;10.00;99.90;;;;;;5057984;28;20083;-57
2022/01/03 06:10:44;;;;;;;8.45;2.45;;;10.00;99.90;;;;;;5086754;28;20496;-56
2022/01/03 06:13:11;;;;;;;8.32;2.42;;;10.00;99.90;;;;;;5084131;28;20109;-53
2022/01/03 06:15:38;;;;;;;10.90;3.05;;;10.00;99.90;;;;;;5084238;28;20125;-54
2022/01/03 06:18:10;;;;;;;15.30;3.88;;;10.00;99.90;;;;;;5085959;28;20403;-55
2022/01/03 06:20:41;;;;;;;12.48;3.20;;;10.00;99.90;;;;;;5085539;28;20121;-57
2022/01/03 06:23:08;;;;;;;10.93;2.85;;;10.00;99.90;;;;;;5084239;28;20135;-56
2022/01/03 06:25:35;;;;;;;8.55;3.05;;;9.90;99.90;;;;;;5085153;28;20055;-56
2022/01/03 06:28:07;;;;;;;10.65;3.00;;;9.90;99.90;;;;;;5083816;28;20052;-56
2022/01/03 06:30:36;;;;;;;10.15;2.63;;;9.90;99.90;;;;;;5086795;28;20083;-56
2022/01/03 06:33:04;;;;;;;9.43;3.00;;;10.00;99.90;;;;;;5086538;28;20127;-55
2022/01/03 06:35:30;;;;;;;10.90;2.50;;;9.90;99.90;;;;;;5087938;28;20080;-55
2022/01/03 06:37:57;;;;;;;8.65;2.65;;;9.90;99.90;;;;;;5087874;28;20086;-55
2022/01/03 06:40:25;;;;;;;8.80;2.58;;;9.90;99.90;;;;;;5087489;28;20483;-55
2022/01/03 06:42:52;;;;;;;7.63;2.55;;;9.90;99.90;;;;;;5086836;28;20060;-56
2022/01/03 06:45:19;;;;;;;9.10;3.15;;;9.90;99.90;;;;;;5085734;28;20135;-56
2022/01/03 06:47:47;;;;;;;9.38;2.80;;;9.90;99.90;;;;;;5086981;28;20155;-56
2022/01/03 06:50:13;;;;;;;10.07;2.42;;;9.90;99.90;;;;;;5087398;28;20127;-56
2022/01/03 06:52:40;;;;;;;9.25;3.25;;;9.90;99.90;;;;;;5083804;28;20522;-56
2022/01/03 06:55:08;;;;;;;10.35;2.53;;;9.90;99.90;;;;;;5083893;28;20080;-57
2022/01/03 06:57:34;;;;;;;9.70;2.83;;;9.90;99.90;;;;;;5084085;28;20155;-57
2022/01/03 07:00:02;;;;;;;9.02;2.80;;;9.90;99.90;;;;;;5082515;28;20130;-56
2022/01/03 07:02:28;;;;;;;10.15;3.05;;;9.90;99.90;;;;;;5081885;28;20131;-56
2022/01/03 07:04:55;;;;;;;11.05;2.85;;;9.90;99.90;;;;;;5083003;28;20120;-55
2022/01/03 07:07:22;;;;;;;12.98;3.15;;;9.90;99.90;;;;;;5085913;28;20139;-55
2022/01/03 07:09:49;;;;;;;12.25;3.78;;;9.90;99.90;;;;;;5085428;28;20560;-56
2022/01/03 07:12:16;;;;;;;12.07;2.92;;;9.90;99.90;;;;;;5086817;28;20127;-56
2022/01/03 07:19:57;;;;;;;14.82;3.60;;;10.00;99.90;;;;;;5086381;28;20067;-55
2022/01/03 07:22:25;;;;;;;11.93;3.60;;;10.00;99.90;;;;;;5083975;28;20052;-56
2022/01/03 07:24:52;;;;;;;17.15;3.95;;;9.90;99.90;;;;;;5083778;28;20135;-55
2022/01/03 07:27:19;;;;;;;12.70;3.58;;;9.90;99.90;;;;;;5083542;28;20135;-57
2022/01/03 07:29:48;;;;;;;15.30;3.88;;;9.90;99.90;;;;;;5082533;28;20067;-56
2022/01/03 07:32:14;;;;;;;12.77;2.88;;;9.90;99.90;;;;;;5086536;28;20047;-55
2022/01/03 07:34:41;;;;;;;13.55;2.85;;;9.90;99.90;;;;;;5085099;28;20139;-55
2022/01/03 07:37:08;;;;;;;11.90;3.28;;;9.90;99.90;;;;;;5083497;28;20135;-56
2022/01/03 07:39:35;;;;;;;15.50;3.47;;;9.90;99.90;;;;;;5082870;28;20090;-56
2022/01/03 07:42:02;;;;;;;9.27;2.80;;;9.90;99.90;;;;;;5083577;28;20094;-56
2022/01/03 07:44:29;;;;;;;12.60;3.25;;;9.80;99.90;;;;;;5081816;28;20101;-54
2022/01/03 07:46:56;;;;;;;17.35;3.88;;;9.80;99.90;;;;;;5086174;28;20493;-54
2022/01/03 07:49:23;;;;;;;12.88;3.92;;;9.80;99.90;;;;;;5085061;28;20067;-56
2022/01/03 07:51:50;;;;;;;11.05;3.22;;;9.80;99.90;;;;;;5086457;28;20459;-55
2022/01/03 07:54:17;;;;;;;13.30;3.28;;;9.80;99.90;;;;;;5084826;28;20609;-55
2022/01/03 07:56:43;;;;;;;10.35;3.28;;;9.80;99.90;;;;;;5066031;28;20438;-55
2022/01/03 07:59:10;;;;;;;10.15;3.58;;;9.80;99.90;;;;;;5073688;28;20127;-56
2022/01/03 08:01:40;;;;;;;13.70;3.85;;;9.80;99.90;;;;;;5084961;28;20664;-56
2022/01/03 08:04:08;;;;;;;9.63;2.53;;;9.70;99.90;;;;;;5081910;28;20143;-55
2022/01/03 08:06:44;;;;;;;13.75;4.07;;;9.80;99.90;;;;;;5078076;28;20618;-54
2022/01/03 08:09:11;;;;;;;13.23;4.70;;;9.80;99.90;;;;;;5077825;28;20138;-55
2022/01/03 08:11:38;;;;;;;13.55;3.50;;;9.80;99.90;;;;;;5078977;28;20127;-55
2022/01/03 08:14:05;;;;;;;13.25;4.25;;;9.80;99.90;;;;;;5077366;28;20079;-52
2022/01/03 08:16:31;;;;;;;16.30;3.70;;;9.80;99.90;;;;;;5078326;28;20079;-55
2022/01/03 08:18:58;;;;;;;17.05;5.85;;;9.90;99.90;;;;;;5079100;28;20364;-56
2022/01/03 08:21:33;;;;;;;10.75;3.33;;;9.90;99.90;;;;;;5077148;28;20059;-58
2022/01/03 08:23:59;;;;;;;12.57;3.65;;;9.90;99.90;;;;;;5078386;28;20156;-54
2022/01/03 08:26:26;;;;;;;10.23;3.30;;;9.90;99.90;;;;;;5079026;28;20123;-56
2022/01/03 08:28:54;;;;;;;14.88;3.85;;;9.90;99.90;;;;;;5076294;28;20373;-56
2022/01/03 08:31:23;;;;;;;13.25;3.20;;;9.90;99.90;;;;;;5077908;28;20146;-55
2022/01/03 08:33:50;;;;;;;9.07;4.25;;;9.90;99.90;;;;;;5079189;28;20070;-55
2022/01/03 08:36:17;;;;;;;16.48;3.60;;;9.90;99.90;;;;;;5077527;28;20051;-56
2022/01/03 08:38:44;;;;;;;12.35;3.17;;;9.90;99.90;;;;;;5080141;28;20521;-56
2022/01/03 08:41:11;;;;;;;11.07;2.90;;;10.00;99.90;;;;;;5080189;28;20096;-55
2022/01/03 08:43:38;;;;;;;11.38;3.28;;;10.00;99.90;;;;;;5076310;28;20127;-55
2022/01/03 08:46:04;;;;;;;8.35;2.70;;;10.00;99.90;;;;;;5079738;28;20202;-55
2022/01/03 08:48:31;;;;;;;11.85;3.08;;;10.00;99.90;;;;;;5079066;28;20052;-56
2022/01/03 08:50:58;;;;;;;8.60;2.88;;;10.00;99.90;;;;;;5079418;28;20083;-55
2022/01/03 08:53:31;;;;;;;10.03;2.27;;;10.00;99.90;;;;;;5078521;28;20047;-55
2022/01/03 08:56:00;;;;;;;7.18;2.20;;;9.90;99.90;;;;;;5077633;28;20083;-55
2022/01/03 08:58:27;;;;;;;8.25;1.90;;;9.90;99.90;;;;;;5078233;28;20378;-52
2022/01/03 09:00:53;;;;;;;8.65;2.28;;;9.90;99.90;;;;;;5080162;28;20105;-55
2022/01/03 09:03:20;;;;;;;6.90;2.00;;;9.90;99.90;;;;;;5077819;28;20415;-55
2022/01/03 09:05:47;;;;;;;5.78;1.92;;;9.90;99.90;;;;;;5079748;28;20048;-56
2022/01/03 09:08:15;;;;;;;5.28;1.85;;;9.90;99.90;;;;;;5077950;28;20544;-55
2022/01/03 09:10:42;;;;;;;10.23;1.83;;;9.90;99.90;;;;;;5078629;28;20079;-53
2022/01/03 09:13:09;;;;;;;5.28;1.95;;;9.90;99.90;;;;;;5078639;28;20081;-56
2022/01/03 09:15:40;;;;;;;6.32;1.75;;;9.90;99.90;;;;;;5076232;28;20140;-53
2022/01/03 09:18:10;;;;;;;8.30;2.38;;;9.90;99.90;;;;;;5068055;28;20048;-57
2022/01/03 09:20:36;;;;;;;4.47;1.30;;;9.90;99.90;;;;;;5078995;28;20139;-55
2022/01/03 09:23:28;;;;;;;4.22;1.50;;;9.90;99.90;;;;;;5077970;28;20127;-54
2022/01/03 09:31:32;;;;;;;4.40;1.60;;;9.90;99.90;;;;;;5077950;28;20158;-54
2022/01/03 09:34:00;;;;;;;5.57;1.58;;;9.90;99.90;;;;;;5077747;28;20063;-56
2022/01/03 09:36:28;;;;;;;4.60;1.23;;;10.00;99.90;;;;;;5077236;28;20072;-55
2022/01/03 09:38:54;;;;;;;6.03;1.65;;;10.00;99.90;;;;;;5076360;28;20134;-55
2022/01/03 09:41:23;;;;;;;4.13;1.10;;;10.00;99.90;;;;;;5078396;28;20143;-56
2022/01/03 09:43:51;;;;;;;4.50;1.45;;;10.00;99.90;;;;;;5069822;28;20090;-55
2022/01/03 09:46:23;;;;;;;4.90;1.40;;;10.10;99.90;;;;;;5078347;28;20131;-55
2022/01/03 09:48:53;;;;;;;5.43;1.50;;;10.10;99.90;;;;;;5077854;28;20084;-56
2022/01/03 09:51:24;;;;;;;4.35;1.58;;;10.10;99.90;;;;;;5076834;28;20139;-56
2022/01/03 09:53:51;;;;;;;6.70;2.22;;;10.10;99.90;;;;;;5078547;28;20052;-56
2022/01/03 09:56:18;;;;;;;3.97;1.17;;;10.10;99.90;;;;;;5078479;28;20143;-56
2022/01/03 09:58:44;;;;;;;4.25;1.20;;;10.10;99.90;;;;;;5078152;28;20451;-55
2022/01/03 10:01:11;;;;;;;2.15;0.82;;;10.20;99.90;;;;;;5078985;28;20071;-57
2022/01/03 10:03:41;;;;;;;3.78;1.05;;;10.20;99.90;;;;;;5078751;28;20052;-56
2022/01/03 10:06:09;;;;;;;5.40;1.40;;;10.20;99.90;;;;;;5078958;28;20564;-55
2022/01/03 10:08:36;;;;;;;3.67;1.23;;;10.20;99.90;;;;;;5060649;28;20841;-56
2022/01/03 10:11:02;;;;;;;6.93;1.98;;;10.20;99.90;;;;;;5078476;28;20139;-55
2022/01/03 10:13:29;;;;;;;4.88;1.70;;;10.20;99.90;;;;;;5077014;28;20151;-54
2022/01/03 10:15:56;;;;;;;2.65;0.80;;;10.20;99.90;;;;;;5068724;28;20075;-56
2022/01/03 10:18:23;;;;;;;4.00;0.80;;;10.20;99.90;;;;;;5077913;28;20518;-56
2022/01/03 10:20:50;;;;;;;2.97;1.00;;;10.20;99.90;;;;;;5079464;28;20052;-57
2022/01/03 10:23:17;;;;;;;6.10;1.13;;;10.20;99.90;;;;;;5077667;28;20076;-57
2022/01/03 10:25:46;;;;;;;3.30;1.05;;;10.20;99.90;;;;;;5079060;28;20488;-55
2022/01/03 10:28:26;;;;;;;4.10;1.42;;;10.30;99.90;;;;;;5078050;28;20676;-56
2022/01/03 10:30:53;;;;;;;3.65;1.20;;;10.20;99.90;;;;;;5077856;28;20499;-55
2022/01/03 10:33:22;;;;;;;3.40;1.00;;;10.30;99.90;;;;;;5076289;28;20428;-56
2022/01/03 10:35:55;;;;;;;4.22;1.00;;;10.30;99.90;;;;;;5077863;28;20127;-56
2022/01/03 10:38:41;;;;;;;3.40;1.40;;;10.30;99.90;;;;;;5059291;28;20135;-55
2022/01/03 10:41:13;;;;;;;6.13;1.80;;;10.30;99.90;;;;;;5081797;28;20114;-57
2022/01/03 10:43:41;;;;;;;6.40;1.60;;;10.30;99.90;;;;;;5077927;28;20331;-56
2022/01/03 10:46:23;;;;;;;3.88;1.20;;;10.30;99.90;;;;;;5081366;28;20128;-57
2022/01/03 10:48:52;;;;;;;2.75;0.80;;;10.40;99.90;;;;;;5081090;28;20048;-57
2022/01/03 10:51:26;;;;;;;4.07;0.93;;;10.40;99.90;;;;;;5082145;28;20234;-56
2022/01/03 10:53:54;;;;;;;4.53;1.25;;;10.40;99.90;;;;;;5079041;28;20071;-57
2022/01/03 10:56:31;;;;;;;2.42;1.13;;;10.50;99.90;;;;;;5081524;28;20055;-56
2022/01/03 10:59:14;;;;;;;3.75;1.60;;;10.50;99.90;;;;;;5080148;28;20079;-57
2022/01/03 11:01:42;;;;;;;3.50;1.05;;;10.50;99.90;;;;;;5081466;28;20078;-56
2022/01/03 11:04:13;;;;;;;3.10;0.98;;;10.50;99.90;;;;;;5079213;28;20097;-51
2022/01/03 11:11:55;;;;;;;5.80;1.75;;;10.40;99.90;;;;;;5079333;28;20072;-57
2022/01/03 11:14:41;;;;;;;4.47;1.42;;;10.50;99.90;;;;;;5078985;28;20143;-56
2022/01/03 11:17:29;;;;;;;3.17;1.20;;;10.60;99.90;;;;;;5076562;28;20128;-56
2022/01/03 11:19:59;;;;;;;3.00;1.00;;;10.50;99.90;;;;;;5076652;28;20055;-56
2022/01/03 11:22:43;;;;;;;3.83;0.98;;;10.60;99.90;;;;;;5078786;28;20128;-56
2022/01/03 11:25:10;;;;;;;;;;;10.60;99.90;;;;;;5077629;28;20468;-56
2022/01/03 11:27:40;;;;;;;4.90;1.17;;;10.70;99.90;;;;;;5079342;28;20002;-55
2022/01/03 11:30:08;;;;;;;4.75;1.10;;;10.80;99.90;;;;;;5076963;28;20203;-56
2022/01/03 11:32:39;;;;;;;3.20;1.10;;;10.70;99.90;;;;;;5080071;28;20440;-55
2022/01/03 11:35:06;;;;;;;4.95;1.40;;;10.70;99.90;;;;;;5077606;28;20178;-56
2022/01/03 11:37:34;;;;;;;3.78;1.50;;;10.70;99.90;;;;;;5079480;28;20043;-56
2022/01/03 11:40:03;;;;;;;2.72;1.00;;;10.70;99.90;;;;;;5076510;28;20083;-57
2022/01/03 11:42:32;;;;;;;5.18;1.38;;;10.80;99.90;;;;;;5077405;28;20504;-56
2022/01/03 11:44:59;;;;;;;4.05;1.17;;;10.80;99.90;;;;;;5074513;28;20484;-56
2022/01/03 11:47:31;;;;;;;3.42;0.90;;;10.90;99.90;;;;;;5033887;28;20142;-55
2022/01/03 11:49:58;;;;;;;4.05;1.52;;;10.90;99.90;;;;;;5077861;28;20080;-58
2022/01/03 11:52:25;;;;;;;4.78;1.17;;;10.90;99.90;;;;;;5077663;28;20095;-51
2022/01/03 11:54:52;;;;;;;3.88;1.20;;;10.90;99.90;;;;;;5076302;28;20218;-56
2022/01/03 11:58:11;;;;;;;3.38;0.95;;;11.00;99.90;;;;;;5077400;28;20124;-54
2022/01/03 12:05:52;;;;;;;4.70;1.65;;;11.10;99.90;;;;;;5076908;28;20055;-52
2022/01/03 12:08:30;;;;;;;3.70;1.20;;;11.10;99.90;;;;;;5077958;28;20409;-57
2022/01/03 12:11:00;;;;;;;5.80;1.70;;;11.10;99.90;;;;;;5078191;28;20415;-56
2022/01/03 12:13:49;;;;;;;5.03;1.30;;;11.10;99.90;;;;;;5077589;28;20079;-56
2022/01/03 12:16:17;;;;;;;3.47;1.08;;;11.10;99.90;;;;;;5077827;28;20052;-57
2022/01/03 12:19:00;;;;;;;5.05;1.55;;;11.20;99.90;;;;;;5076441;28;20599;-57
2022/01/03 12:21:49;;;;;;;5.55;1.92;;;11.20;99.90;;;;;;5078137;28;20051;-58
2022/01/03 12:24:43;;;;;;;5.45;1.45;;;11.20;99.90;;;;;;5075751;28;20078;-57
2022/01/03 12:27:10;;;;;;;;;;;11.20;99.90;;;;;;5074722;28;20047;-58
2022/01/03 12:29:57;;;;;;;4.90;1.40;;;11.20;99.90;;;;;;5076051;28;20687;-57
2022/01/03 12:32:25;;;;;;;5.80;1.50;;;11.20;99.90;;;;;;5075781;28;20110;-57
2022/01/03 12:35:10;;;;;;;3.95;1.50;;;11.20;99.90;;;;;;5077548;28;20048;-57
2022/01/03 12:37:38;;;;;;;6.55;1.85;;;11.20;99.90;;;;;;5076517;28;20109;-58
2022/01/03 12:40:05;;;;;;;5.20;1.52;;;11.20;99.90;;;;;;5078227;28;20169;-57
2022/01/03 12:42:48;;;;;;;4.32;1.17;;;11.30;99.90;;;;;;5075273;28;20121;-57
2022/01/03 12:45:30;;;;;;;2.83;1.30;;;11.30;99.90;;;;;;5075790;28;20183;-55
2022/01/03 12:48:14;;;;;;;6.70;1.75;;;11.30;99.90;;;;;;5077051;28;20317;-57
2022/01/03 12:50:51;;;;;;;4.60;1.30;;;11.30;99.90;;;;;;5077995;28;20221;-57
2022/01/03 12:53:27;;;;;;;6.20;1.60;;;11.40;99.90;;;;;;5078850;28;20555;-57
2022/01/03 12:55:55;;;;;;;4.18;1.60;;;11.40;99.90;;;;;;5079751;28;20105;-57
2022/01/03 12:58:22;;;;;;;4.90;0.98;;;11.40;99.90;;;;;;5076531;28;20048;-54
2022/01/03 13:00:59;;;;;;;4.63;1.25;;;11.40;99.90;;;;;;5077807;28;20092;-57
2022/01/03 13:03:32;;;;;;;4.82;1.23;;;11.40;99.90;;;;;;5078307;28;20051;-57
2022/01/03 13:06:17;;;;;;;3.30;1.30;;;11.40;99.90;;;;;;5077234;28;20143;-56
2022/01/03 13:08:56;;;;;;;3.63;1.52;;;11.40;99.90;;;;;;5078344;28;20132;-56
2022/01/03 13:11:27;;;;;;;2.45;1.02;;;11.40;99.90;;;;;;5077770;28;20079;-58
2022/01/03 13:14:02;;;;;;;3.83;1.27;;;11.40;99.90;;;;;;5076866;28;20075;-51
2022/01/03 13:16:30;;;;;;;3.42;1.38;;;11.40;99.90;;;;;;5079688;28;20186;-54
2022/01/03 13:19:12;;;;;;;2.88;1.20;;;11.40;99.90;;;;;;5077757;28;20111;-58
2022/01/03 13:21:46;;;;;;;4.72;1.30;;;11.50;99.90;;;;;;5075665;28;20060;-58
2022/01/03 13:24:21;;;;;;;4.13;1.45;;;11.40;99.90;;;;;;5076737;28;20137;-59
2022/01/03 13:26:52;;;;;;;2.33;0.82;;;11.40;99.90;;;;;;5077783;28;20131;-57
2022/01/03 13:29:19;;;;;;;3.75;1.40;;;11.40;99.90;;;;;;5075431;28;20135;-57
2022/01/03 13:31:49;;;;;;;2.65;1.00;;;11.50;99.90;;;;;;5078532;28;20155;-56